createdAt,value
2022-08-17T00:01:56.909Z,28.19
2022-08-17T00:04:52.024Z,28.20
2022-08-17T00:07:47.695Z,28.19
2022-08-17T00:10:39.646Z,28.19
2022-08-17T00:13:33.421Z,28.17
2022-08-17T00:16:56.310Z,28.16
2022-08-17T00:19:42.410Z,28.14
2022-08-17T00:22:36.293Z,28.12
2022-08-17T00:25:27.862Z,28.12
2022-08-17T00:28:18.800Z,28.17
2022-08-17T00:31:13.123Z,28.26
2022-08-17T00:34:02.845Z,28.31
2022-08-17T00:36:52.682Z,28.37
2022-08-17T00:39:48.359Z,28.37
2022-08-17T00:42:39.813Z,28.35
2022-08-17T00:45:30.020Z,28.31
2022-08-17T00:48:28.984Z,28.27
2022-08-17T00:51:27.979Z,28.22
2022-08-17T00:54:22.320Z,28.19
2022-08-17T00:57:16.651Z,28.17
2022-08-17T01:00:13.121Z,28.14
2022-08-17T01:03:07.673Z,28.12
2022-08-17T01:06:04.576Z,28.09
2022-08-17T01:08:57.450Z,28.08
2022-08-17T01:11:50.327Z,28.08
2022-08-17T01:14:41.988Z,28.08
2022-08-17T01:17:32.484Z,28.08
2022-08-17T01:20:22.486Z,28.06
2022-08-17T01:23:12.966Z,28.06
2022-08-17T01:26:13.372Z,28.06
2022-08-17T01:29:05.204Z,28.05
2022-08-17T01:31:58.728Z,28.05
2022-08-17T01:34:50.992Z,28.05
2022-08-17T01:37:43.758Z,28.05
2022-08-17T01:40:39.109Z,28.03
2022-08-17T01:43:33.091Z,28.03
2022-08-17T01:46:28.528Z,28.03
2022-08-17T01:49:18.830Z,28.05
2022-08-17T01:52:12.030Z,28.04
2022-08-17T01:55:05.908Z,28.04
2022-08-17T01:57:58.188Z,28.03
2022-08-17T02:01:00.085Z,28.03
2022-08-17T02:04:01.152Z,28.05
2022-08-17T02:06:53.147Z,28.06
2022-08-17T02:09:52.671Z,28.07
2022-08-17T02:12:42.960Z,28.08
2022-08-17T02:15:34.804Z,28.07
2022-08-17T02:18:26.038Z,28.07
2022-08-17T02:21:16.897Z,28.06
2022-08-17T02:24:08.602Z,28.06
2022-08-17T02:26:58.930Z,28.05
2022-08-17T02:29:49.206Z,28.05
2022-08-17T02:32:40.486Z,28.06
2022-08-17T02:35:31.131Z,28.11
2022-08-17T02:38:21.419Z,28.15
2022-08-17T02:41:13.306Z,28.15
2022-08-17T02:44:04.454Z,28.16
2022-08-17T02:46:56.687Z,28.16
2022-08-17T02:49:54.461Z,28.15
2022-08-17T02:52:55.246Z,28.13
2022-08-17T02:55:55.435Z,28.11
2022-08-17T02:58:48.371Z,28.09
2022-08-17T03:01:38.679Z,28.07
2022-08-17T03:04:28.884Z,28.05
2022-08-17T03:07:20.321Z,28.06
2022-08-17T03:10:13.064Z,28.06
2022-08-17T03:13:02.905Z,28.06
2022-08-17T03:15:53.531Z,28.06
2022-08-17T03:18:43.812Z,28.04
2022-08-17T03:21:33.546Z,28.05
2022-08-17T03:24:25.129Z,28.05
2022-08-17T03:27:18.581Z,28.05
2022-08-17T03:30:13.161Z,28.06
2022-08-17T03:33:06.473Z,28.05
2022-08-17T03:35:57.034Z,28.04
2022-08-17T03:38:47.310Z,28.05
2022-08-17T03:41:38.437Z,28.06
2022-08-17T03:44:29.072Z,28.06
2022-08-17T03:47:36.700Z,28.05
2022-08-17T03:50:45.574Z,28.03
2022-08-17T03:54:04.718Z,28.01
2022-08-17T03:57:04.949Z,27.99
2022-08-17T03:59:56.022Z,27.98
2022-08-17T04:02:46.798Z,27.98
2022-08-17T04:05:37.334Z,27.98
2022-08-17T04:08:28.226Z,27.96
2022-08-17T04:11:18.546Z,27.95
2022-08-17T04:14:09.939Z,27.95
2022-08-17T04:17:00.332Z,27.94
2022-08-17T04:19:51.187Z,27.94
2022-08-17T04:22:42.042Z,27.93
2022-08-17T04:25:34.588Z,27.93
2022-08-17T04:28:24.963Z,27.92
2022-08-17T04:31:15.984Z,27.91
2022-08-17T04:34:06.126Z,27.89
2022-08-17T04:36:58.948Z,27.88
2022-08-17T04:40:09.318Z,27.88
2022-08-17T04:43:07.382Z,27.87
2022-08-17T04:46:00.223Z,27.86
2022-08-17T04:48:51.708Z,27.85
2022-08-17T04:51:47.913Z,27.87
2022-08-17T04:54:45.774Z,27.87
2022-08-17T04:57:39.334Z,27.87
2022-08-17T05:00:31.431Z,27.87
2022-08-17T05:03:22.418Z,27.89
2022-08-17T05:06:13.777Z,27.90
2022-08-17T05:09:04.399Z,27.91
2022-08-17T05:11:55.360Z,27.93
2022-08-17T05:14:46.919Z,27.95
2022-08-17T05:17:37.309Z,27.96
2022-08-17T05:20:28.564Z,27.97
2022-08-17T05:23:22.001Z,27.99
2022-08-17T05:26:25.495Z,28.02
2022-08-17T05:29:18.895Z,28.04
2022-08-17T05:32:38.033Z,28.14
2022-08-17T05:35:25.462Z,28.41
2022-08-17T05:38:16.566Z,28.59
2022-08-17T05:41:08.822Z,28.72
2022-08-17T05:43:58.803Z,28.83
2022-08-17T05:46:54.409Z,28.91
2022-08-17T05:49:44.850Z,28.93
2022-08-17T05:52:47.230Z,28.95
2022-08-17T05:55:46.157Z,28.96
2022-08-17T05:58:49.606Z,28.98
2022-08-17T06:01:56.307Z,29.04
2022-08-17T06:05:03.443Z,29.13
2022-08-17T06:08:08.034Z,29.16
2022-08-17T06:11:15.934Z,29.17
2022-08-17T06:14:33.046Z,29.25
2022-08-17T06:17:27.434Z,29.34
2022-08-17T06:20:18.414Z,29.39
2022-08-17T06:23:14.672Z,29.40
2022-08-17T06:26:10.111Z,29.40
2022-08-17T06:29:08.227Z,29.42
2022-08-17T06:32:12.909Z,29.42
2022-08-17T06:35:07.075Z,29.39
2022-08-17T06:38:36.875Z,29.36
2022-08-17T06:41:31.579Z,29.32
2022-08-17T06:44:43.537Z,29.30
2022-08-17T06:47:49.320Z,29.24
2022-08-17T06:50:44.269Z,29.20
2022-08-17T06:53:42.235Z,29.12
2022-08-17T06:56:53.295Z,29.05
2022-08-17T06:59:54.858Z,29.04
2022-08-17T07:02:55.465Z,29.02
2022-08-17T07:05:49.587Z,28.95
2022-08-17T07:08:50.838Z,28.87
2022-08-17T07:11:49.043Z,28.86
2022-08-17T07:14:47.297Z,28.91
2022-08-17T07:17:47.760Z,28.95
2022-08-17T07:20:44.426Z,29.04
2022-08-17T07:23:54.393Z,29.15
2022-08-17T07:26:45.112Z,29.22
2022-08-17T07:29:41.395Z,29.25
2022-08-17T07:32:36.576Z,29.28
2022-08-17T07:35:41.266Z,29.31
2022-08-17T07:38:36.321Z,29.31
2022-08-17T07:41:53.424Z,29.28
2022-08-17T07:44:51.654Z,29.20
2022-08-17T07:47:59.551Z,29.07
2022-08-17T07:50:53.251Z,28.93
2022-08-17T07:53:43.215Z,28.81
2022-08-17T07:56:41.189Z,28.77
2022-08-17T07:59:34.223Z,28.82
2022-08-17T08:02:34.309Z,28.84
2022-08-17T08:05:44.292Z,28.78
2022-08-17T08:08:42.461Z,28.67
2022-08-17T08:11:35.801Z,28.69
2022-08-17T08:14:31.080Z,28.71
2022-08-17T08:17:27.365Z,28.73
2022-08-17T08:20:37.615Z,28.75
2022-08-17T08:23:43.038Z,28.76
2022-08-17T08:26:42.418Z,28.78
2022-08-17T08:29:44.930Z,28.80
2022-08-17T08:32:48.125Z,28.79
2022-08-17T08:35:47.361Z,28.76
2022-08-17T08:38:48.187Z,28.74
2022-08-17T08:41:49.441Z,28.76
2022-08-17T08:45:00.159Z,28.76
2022-08-17T08:48:45.868Z,28.78
2022-08-17T08:51:40.131Z,28.78
2022-08-17T08:54:42.105Z,28.82
2022-08-17T08:57:37.475Z,28.85
2022-08-17T09:00:29.286Z,28.88
2022-08-17T09:03:52.297Z,28.90
2022-08-17T09:06:56.600Z,28.94
2022-08-17T09:09:59.347Z,28.94
2022-08-17T09:12:59.119Z,28.97
2022-08-17T09:15:56.048Z,29.04
2022-08-17T09:19:01.333Z,29.07
2022-08-17T09:21:59.735Z,29.13
2022-08-17T09:24:57.333Z,29.19
2022-08-17T09:27:57.513Z,29.23
2022-08-17T09:30:54.322Z,29.29
2022-08-17T09:33:48.384Z,29.37
2022-08-17T09:36:45.977Z,29.51
2022-08-17T09:39:41.158Z,29.62
2022-08-17T09:42:39.194Z,29.71
2022-08-17T09:45:37.312Z,29.76
2022-08-17T09:48:32.393Z,29.80
2022-08-17T09:51:31.630Z,29.82
2022-08-17T09:54:39.303Z,29.78
2022-08-17T09:57:43.623Z,29.71
2022-08-17T10:00:36.837Z,29.67
2022-08-17T10:03:50.984Z,29.64
2022-08-17T10:06:51.946Z,29.61
2022-08-17T10:09:56.216Z,29.60
2022-08-17T10:12:58.112Z,29.58
2022-08-17T10:15:56.030Z,29.47
2022-08-17T10:18:56.974Z,29.39
2022-08-17T10:22:32.720Z,29.41
2022-08-17T10:25:54.135Z,29.46
2022-08-17T10:28:52.750Z,29.45
2022-08-17T10:31:49.928Z,29.41
2022-08-17T10:35:01.880Z,29.36
2022-08-17T10:38:24.772Z,29.24
2022-08-17T10:41:36.838Z,28.98
2022-08-17T10:44:43.191Z,28.75
2022-08-17T10:48:04.755Z,28.58
2022-08-17T10:51:07.524Z,28.38
2022-08-17T10:54:02.250Z,28.26
2022-08-17T10:56:54.340Z,28.16
2022-08-17T10:59:55.976Z,28.07
2022-08-17T11:02:51.250Z,27.98
2022-08-17T11:05:54.224Z,27.92
2022-08-17T11:09:14.285Z,27.87
2022-08-17T11:12:16.490Z,27.82
2022-08-17T11:15:23.283Z,27.81
2022-08-17T11:18:42.120Z,27.89
2022-08-17T11:21:58.400Z,28.03
2022-08-17T11:24:54.870Z,28.15
2022-08-17T11:27:53.947Z,28.17
2022-08-17T11:30:53.576Z,28.15
2022-08-17T11:34:09.416Z,28.16
2022-08-17T11:37:29.824Z,28.20
2022-08-17T11:40:43.245Z,28.25
2022-08-17T11:44:03.771Z,28.31
2022-08-17T11:47:24.027Z,28.38
2022-08-17T11:50:56.481Z,28.55
2022-08-17T11:54:31.625Z,28.74
2022-08-17T11:57:47.486Z,28.90
2022-08-17T12:01:07.822Z,29.00
2022-08-17T12:04:18.656Z,29.05
2022-08-17T12:07:18.197Z,29.09
2022-08-17T12:10:12.365Z,29.10
2022-08-17T12:13:11.984Z,29.09
2022-08-17T12:16:02.670Z,29.07
2022-08-17T12:18:58.754Z,29.06
2022-08-17T12:21:54.667Z,29.03
2022-08-17T12:24:55.538Z,29.00
2022-08-17T12:28:06.401Z,29.00
2022-08-17T12:31:07.665Z,29.00
2022-08-17T12:34:00.564Z,28.99
2022-08-17T12:36:59.884Z,29.00
2022-08-17T12:39:58.013Z,29.00
2022-08-17T12:42:58.559Z,28.97
2022-08-17T12:46:01.275Z,28.96
2022-08-17T12:49:24.074Z,28.96
2022-08-17T12:52:18.955Z,28.95
2022-08-17T12:55:21.365Z,28.96
2022-08-17T12:58:19.871Z,28.97
2022-08-17T13:01:17.857Z,28.96
2022-08-17T13:04:09.776Z,28.95
2022-08-17T13:07:00.444Z,28.95
2022-08-17T13:09:55.314Z,28.95
2022-08-17T13:12:45.942Z,28.95
2022-08-17T13:15:44.394Z,28.95
2022-08-17T13:18:48.056Z,28.96
2022-08-17T13:21:38.960Z,28.96
2022-08-17T13:24:38.254Z,28.96
2022-08-17T13:27:31.616Z,28.94
2022-08-17T13:30:28.168Z,28.93
2022-08-17T13:33:43.276Z,28.91
2022-08-17T13:36:37.767Z,28.88
2022-08-17T13:39:41.658Z,28.86
2022-08-17T13:42:53.028Z,28.84
2022-08-17T13:45:54.184Z,28.81
2022-08-17T13:48:44.564Z,28.78
2022-08-17T13:51:42.938Z,28.71
2022-08-17T13:54:37.230Z,28.64
2022-08-17T13:57:28.599Z,28.59
2022-08-17T14:00:32.837Z,28.57
2022-08-17T14:03:25.280Z,28.54
2022-08-17T14:06:49.349Z,28.49
2022-08-17T14:09:36.798Z,28.45
2022-08-17T14:12:31.994Z,28.40
2022-08-17T14:15:24.857Z,28.35
2022-08-17T14:18:56.285Z,28.29
2022-08-17T14:21:47.030Z,28.21
2022-08-17T14:24:44.671Z,28.14
2022-08-17T14:27:47.097Z,28.11
2022-08-17T14:30:43.517Z,28.10
2022-08-17T14:33:35.069Z,28.09
2022-08-17T14:36:25.920Z,28.05
2022-08-17T14:39:17.194Z,27.98
2022-08-17T14:42:07.783Z,27.87
2022-08-17T14:45:00.343Z,27.78
2022-08-17T14:47:50.544Z,27.69
2022-08-17T14:50:46.224Z,27.64
2022-08-17T14:53:37.835Z,27.60
2022-08-17T14:56:28.575Z,27.55
2022-08-17T14:59:28.251Z,27.51
2022-08-17T15:02:18.806Z,27.40
2022-08-17T15:05:10.376Z,27.30
2022-08-17T15:08:01.461Z,27.29
2022-08-17T15:10:54.202Z,27.30
2022-08-17T15:13:52.169Z,27.26
2022-08-17T15:16:44.000Z,27.32
2022-08-17T15:19:34.767Z,27.55
2022-08-17T15:22:28.143Z,27.78
2022-08-17T15:25:22.193Z,27.97
2022-08-17T15:28:13.479Z,28.11
2022-08-17T15:31:03.976Z,28.18
2022-08-17T15:33:54.750Z,28.22
2022-08-17T15:36:49.145Z,28.18
2022-08-17T15:39:40.262Z,28.11
2022-08-17T15:42:30.501Z,28.08
2022-08-17T15:45:26.672Z,28.03
2022-08-17T15:48:22.815Z,28.00
2022-08-17T15:51:15.080Z,28.03
2022-08-17T15:54:22.476Z,28.05
2022-08-17T15:57:13.659Z,28.05
2022-08-17T16:00:04.037Z,28.11
2022-08-17T16:03:46.253Z,28.17
2022-08-17T16:06:17.194Z,28.23
2022-08-17T16:09:07.578Z,28.28
2022-08-17T16:11:57.973Z,28.36
2022-08-17T16:14:50.346Z,28.41
2022-08-17T16:17:41.645Z,28.45
2022-08-17T16:20:33.020Z,28.47
2022-08-17T16:23:23.760Z,28.51
2022-08-17T16:26:13.642Z,28.48
2022-08-17T16:29:08.033Z,28.41
2022-08-17T16:31:58.870Z,28.34
2022-08-17T16:34:49.214Z,28.26
2022-08-17T16:37:41.793Z,28.18
2022-08-17T16:40:36.743Z,28.11
2022-08-17T16:43:28.395Z,28.10
2022-08-17T16:46:19.256Z,28.13
2022-08-17T16:49:10.982Z,28.17
2022-08-17T16:52:14.975Z,28.19
2022-08-17T16:55:24.622Z,28.24
2022-08-17T16:58:16.046Z,28.23
2022-08-17T17:01:08.016Z,28.23
2022-08-17T17:04:04.573Z,28.25
2022-08-17T17:07:02.855Z,28.24
2022-08-17T17:09:56.300Z,28.30
2022-08-17T17:13:01.689Z,28.32
2022-08-17T17:16:00.299Z,28.32
2022-08-17T17:19:05.342Z,28.31
2022-08-17T17:22:03.976Z,28.29
2022-08-17T17:25:03.112Z,28.29
2022-08-17T17:28:02.903Z,28.29
2022-08-17T17:30:59.187Z,28.29
2022-08-17T17:33:54.637Z,28.31
2022-08-17T17:36:50.271Z,28.33
2022-08-17T17:39:45.419Z,28.38
2022-08-17T17:42:35.826Z,28.37
2022-08-17T17:45:34.626Z,28.37
2022-08-17T17:48:24.911Z,28.37
2022-08-17T17:52:06.720Z,28.35
2022-08-17T17:54:40.738Z,28.34
2022-08-17T17:57:41.884Z,28.31
2022-08-17T18:00:38.015Z,28.29
2022-08-17T18:03:50.681Z,28.28
2022-08-17T18:06:50.493Z,28.23
2022-08-17T18:10:01.620Z,28.24
2022-08-17T18:13:00.127Z,28.22
2022-08-17T18:15:53.043Z,28.21
2022-08-17T18:18:44.838Z,28.21
2022-08-17T18:21:39.801Z,28.15
2022-08-17T18:24:35.667Z,28.04
2022-08-17T18:27:35.621Z,27.90
2022-08-17T18:30:31.201Z,27.78
2022-08-17T18:33:26.939Z,27.68
2022-08-17T18:36:29.571Z,27.60
2022-08-17T18:39:27.018Z,27.57
2022-08-17T18:42:28.311Z,27.55
2022-08-17T18:45:35.362Z,27.53
2022-08-17T18:48:33.153Z,27.53
2022-08-17T18:51:41.016Z,27.54
2022-08-17T18:54:32.942Z,27.56
2022-08-17T18:57:31.785Z,27.56
2022-08-17T19:00:38.482Z,27.56
2022-08-17T19:03:29.609Z,27.53
2022-08-17T19:06:24.977Z,27.50
2022-08-17T19:09:35.144Z,27.47
2022-08-17T19:12:32.704Z,27.41
2022-08-17T19:15:29.069Z,27.37
2022-08-17T19:18:24.100Z,27.33
2022-08-17T19:21:21.558Z,27.30
2022-08-17T19:24:19.542Z,27.30
2022-08-17T19:27:20.456Z,27.23
2022-08-17T19:30:17.154Z,27.17
2022-08-17T19:33:07.197Z,27.10
2022-08-17T19:36:06.654Z,27.03
2022-08-17T19:39:05.011Z,26.99
2022-08-17T19:42:14.041Z,26.98
2022-08-17T19:45:12.994Z,26.99
2022-08-17T19:48:13.523Z,26.92
2022-08-17T19:51:07.358Z,26.83
2022-08-17T19:54:06.705Z,26.78
2022-08-17T19:57:05.934Z,26.75
2022-08-17T20:00:00.229Z,26.72
2022-08-17T20:02:57.578Z,26.72
2022-08-17T20:06:11.904Z,26.72
2022-08-17T20:09:15.167Z,26.65
2022-08-17T20:12:10.635Z,26.61
2022-08-17T20:15:05.553Z,26.57
2022-08-17T20:17:58.918Z,26.58
2022-08-17T20:20:57.050Z,26.62
2022-08-17T20:23:58.618Z,26.67
2022-08-17T20:26:58.812Z,26.71
2022-08-17T20:30:11.505Z,26.75
2022-08-17T20:33:05.351Z,26.76
2022-08-17T20:36:17.335Z,26.79
2022-08-17T20:39:34.057Z,26.86
2022-08-17T20:42:35.163Z,26.91
2022-08-17T20:45:54.125Z,26.95
2022-08-17T20:48:47.649Z,26.96
2022-08-17T20:51:43.357Z,26.92
2022-08-17T20:54:52.982Z,26.82
2022-08-17T20:57:50.423Z,26.75
2022-08-17T21:00:46.831Z,26.69
2022-08-17T21:03:59.188Z,26.64
2022-08-17T21:07:19.919Z,26.59
2022-08-17T21:10:16.198Z,26.53
2022-08-17T21:13:38.820Z,26.50
2022-08-17T21:16:51.558Z,26.46
2022-08-17T21:20:13.816Z,26.44
2022-08-17T21:23:21.440Z,26.41
2022-08-17T21:26:26.733Z,26.39
2022-08-17T21:29:32.531Z,26.36
2022-08-17T21:32:31.518Z,26.31
2022-08-17T21:35:31.133Z,26.27
2022-08-17T21:38:24.484Z,26.25
2022-08-17T21:41:23.468Z,26.23
2022-08-17T21:44:30.520Z,26.20
2022-08-17T21:47:25.461Z,26.19
2022-08-17T21:50:23.806Z,26.18
2022-08-17T21:53:25.387Z,26.17
2022-08-17T21:56:26.425Z,26.15
2022-08-17T21:59:27.918Z,26.12
2022-08-17T22:02:24.345Z,26.09
2022-08-17T22:05:16.724Z,26.08
2022-08-17T22:08:19.528Z,26.08
2022-08-17T22:11:10.418Z,26.06
2022-08-17T22:14:05.949Z,26.05
2022-08-17T22:17:20.323Z,26.06
2022-08-17T22:20:18.483Z,26.08
2022-08-17T22:23:32.382Z,26.10
2022-08-17T22:26:25.899Z,26.11
2022-08-17T22:29:57.571Z,26.12
2022-08-17T22:32:50.129Z,26.10
2022-08-17T22:35:42.804Z,26.12
2022-08-17T22:38:34.089Z,26.14
2022-08-17T22:41:32.076Z,26.15
2022-08-17T22:44:29.645Z,26.16
2022-08-17T22:47:38.935Z,26.15
2022-08-17T22:50:34.423Z,26.13
2022-08-17T22:53:58.193Z,26.13
2022-08-17T22:57:16.212Z,26.17
2022-08-17T23:00:32.357Z,26.21
2022-08-17T23:03:25.747Z,26.25
2022-08-17T23:06:16.559Z,26.29
2022-08-17T23:09:07.883Z,26.34
2022-08-17T23:11:59.045Z,26.37
2022-08-17T23:14:57.811Z,26.40
2022-08-17T23:17:48.765Z,26.42
2022-08-17T23:20:41.390Z,26.46
2022-08-17T23:23:31.844Z,26.52
2022-08-17T23:26:23.615Z,26.57
2022-08-17T23:29:14.211Z,26.62
2022-08-17T23:32:06.197Z,26.66
2022-08-17T23:34:59.254Z,26.71
2022-08-17T23:37:49.963Z,26.79
2022-08-17T23:40:41.233Z,26.82
2022-08-17T23:43:32.567Z,26.82
2022-08-17T23:46:25.142Z,26.80
2022-08-17T23:49:15.850Z,26.79
2022-08-17T23:52:09.927Z,26.76
2022-08-17T23:55:01.326Z,26.71
2022-08-17T23:57:52.210Z,26.68
